sensor_id;sensor_type;location;lat;lon;timestamp;pressure;altitude;pressure_sealevel;temperature;humidity
72294;BME280;60632;49.236;8.398;2022-08-19T00:01:26;100113.34;;;28.48;48.98
72294;BME280;60632;49.236;8.398;2022-08-19T00:04:30;100118.94;;;28.48;49.16
72294;BME280;60632;49.236;8.398;2022-08-19T00:07:31;100110.56;;;28.48;49.14
72294;BME280;60632;49.236;8.398;2022-08-19T00:10:31;100108.97;;;28.47;49.08
72294;BME280;60632;49.236;8.398;2022-08-19T00:13:34;100111.75;;;28.47;49.06
72294;BME280;60632;49.236;8.398;2022-08-19T00:16:36;100104.56;;;28.46;49.04
72294;BME280;60632;49.236;8.398;2022-08-19T00:19:36;100115.72;;;28.46;49.26
72294;BME280;60632;49.236;8.398;2022-08-19T00:22:37;100111.28;;;28.45;49.05
72294;BME280;60632;49.236;8.398;2022-08-19T00:25:47;100119.66;;;28.45;48.93
72294;BME280;60632;49.236;8.398;2022-08-19T00:28:51;100119.66;;;28.45;49.17
72294;BME280;60632;49.236;8.398;2022-08-19T00:31:52;100118.84;;;28.45;49.21
72294;BME280;60632;49.236;8.398;2022-08-19T00:34:56;100107.69;;;28.45;49.34
72294;BME280;60632;49.236;8.398;2022-08-19T00:37:57;100106.88;;;28.44;49.19
72294;BME280;60632;49.236;8.398;2022-08-19T00:40:58;100099.72;;;28.43;49.18
72294;BME280;60632;49.236;8.398;2022-08-19T00:44:09;100098.53;;;28.44;49.28
72294;BME280;60632;49.236;8.398;2022-08-19T00:47:10;100098.91;;;28.43;49.27
72294;BME280;60632;49.236;8.398;2022-08-19T00:50:12;100098.91;;;28.43;49.31
72294;BME280;60632;49.236;8.398;2022-08-19T00:53:15;100109.22;;;28.42;49.16
72294;BME280;60632;49.236;8.398;2022-08-19T00:56:20;100102.03;;;28.41;49.18
72294;BME280;60632;49.236;8.398;2022-08-19T00:59:23;100110.06;;;28.43;49.27
72294;BME280;60632;49.236;8.398;2022-08-19T01:02:25;100101.22;;;28.41;49.08
72294;BME280;60632;49.236;8.398;2022-08-19T01:05:30;100090.09;;;28.41;49.12
72294;BME280;60632;49.236;8.398;2022-08-19T01:08:33;100085.31;;;28.41;49.18
72294;BME280;60632;49.236;8.398;2022-08-19T01:11:34;100074.53;;;28.40;49.00
72294;BME280;60632;49.236;8.398;2022-08-19T01:14:36;100083.72;;;28.40;49.32
72294;BME280;60632;49.236;8.398;2022-08-19T01:17:39;100089.28;;;28.40;49.44
72294;BME280;60632;49.236;8.398;2022-08-19T01:20:41;100099.94;;;28.38;49.44
72294;BME280;60632;49.236;8.398;2022-08-19T01:23:45;100121.06;;;28.39;49.18
72294;BME280;60632;49.236;8.398;2022-08-19T01:26:45;100107.13;;;28.39;49.33
72294;BME280;60632;49.236;8.398;2022-08-19T01:29:46;100089.97;;;28.37;49.36
72294;BME280;60632;49.236;8.398;2022-08-19T01:32:52;100096.34;;;28.37;49.24
72294;BME280;60632;49.236;8.398;2022-08-19T01:35:53;100094.38;;;28.38;49.16
72294;BME280;60632;49.236;8.398;2022-08-19T01:38:53;100095.53;;;28.37;49.25
72294;BME280;60632;49.236;8.398;2022-08-19T01:41:54;100100.31;;;28.36;49.13
72294;BME280;60632;49.236;8.398;2022-08-19T01:44:55;100104.25;;;28.35;49.35
72294;BME280;60632;49.236;8.398;2022-08-19T01:47:56;100103.44;;;28.35;49.11
72294;BME280;60632;49.236;8.398;2022-08-19T01:50:57;100100.66;;;28.35;49.38
72294;BME280;60632;49.236;8.398;2022-08-19T01:54:00;100101.84;;;28.34;49.38
72294;BME280;60632;49.236;8.398;2022-08-19T01:57:05;100107.41;;;28.34;49.30
72294;BME280;60632;49.236;8.398;2022-08-19T02:00:08;100111.38;;;28.33;49.22
72294;BME280;60632;49.236;8.398;2022-08-19T02:03:09;100111.38;;;28.33;49.30
72294;BME280;60632;49.236;8.398;2022-08-19T02:06:11;100114.16;;;28.33;49.29
72294;BME280;60632;49.236;8.398;2022-08-19T02:09:11;100109.75;;;28.32;49.20
72294;BME280;60632;49.236;8.398;2022-08-19T02:12:11;100104.97;;;28.32;49.27
72294;BME280;60632;49.236;8.398;2022-08-19T02:15:12;100109.75;;;28.32;49.26
72294;BME280;60632;49.236;8.398;2022-08-19T02:18:13;100105.34;;;28.31;49.45
72294;BME280;60632;49.236;8.398;2022-08-19T02:21:15;100110.91;;;28.31;49.32
72294;BME280;60632;49.236;8.398;2022-08-19T02:24:15;100113.69;;;28.31;49.18
72294;BME280;60632;49.236;8.398;2022-08-19T02:27:16;100131.59;;;28.30;49.36
72294;BME280;60632;49.236;8.398;2022-08-19T02:30:17;100121.59;;;28.29;49.24
72294;BME280;60632;49.236;8.398;2022-08-19T02:33:18;100118.81;;;28.29;49.25
72294;BME280;60632;49.236;8.398;2022-08-19T02:36:19;100116.84;;;28.29;49.33
72294;BME280;60632;49.236;8.398;2022-08-19T02:39:19;100120.78;;;28.28;49.27
72294;BME280;60632;49.236;8.398;2022-08-19T02:42:20;100112.81;;;28.27;49.51
72294;BME280;60632;49.236;8.398;2022-08-19T02:45:20;100118.38;;;28.27;49.36
72294;BME280;60632;49.236;8.398;2022-08-19T02:48:23;100121.50;;;28.25;49.34
72294;BME280;60632;49.236;8.398;2022-08-19T02:51:25;100123.16;;;28.26;49.28
72294;BME280;60632;49.236;8.398;2022-08-19T02:54:25;100124.31;;;28.25;49.48
72294;BME280;60632;49.236;8.398;2022-08-19T02:57:26;100118.72;;;28.25;49.21
72294;BME280;60632;49.236;8.398;2022-08-19T03:00:27;100113.53;;;28.24;49.51
72294;BME280;60632;49.236;8.398;2022-08-19T03:03:27;100104.38;;;28.23;49.28
72294;BME280;60632;49.236;8.398;2022-08-19T03:06:32;100099.59;;;28.24;49.38
72294;BME280;60632;49.236;8.398;2022-08-19T03:09:32;100089.59;;;28.23;49.50
72294;BME280;60632;49.236;8.398;2022-08-19T03:12:35;100086.81;;;28.23;49.30
72294;BME280;60632;49.236;8.398;2022-08-19T03:15:38;100096.34;;;28.22;49.55
72294;BME280;60632;49.236;8.398;2022-08-19T03:18:39;100097.53;;;28.21;49.60
72294;BME280;60632;49.236;8.398;2022-08-19T03:21:39;100092.75;;;28.21;49.55
72294;BME280;60632;49.236;8.398;2022-08-19T03:24:40;100097.53;;;28.21;49.40
72294;BME280;60632;49.236;8.398;2022-08-19T03:27:40;100100.31;;;28.21;49.40
72294;BME280;60632;49.236;8.398;2022-08-19T03:30:41;100106.22;;;28.19;49.44
72294;BME280;60632;49.236;8.398;2022-08-19T03:33:42;100105.44;;;28.19;49.57
72294;BME280;60632;49.236;8.398;2022-08-19T03:36:43;100108.22;;;28.19;49.60
72294;BME280;60632;49.236;8.398;2022-08-19T03:39:52;100109.38;;;28.18;49.42
72294;BME280;60632;49.236;8.398;2022-08-19T03:42:52;100114.16;;;28.17;49.31
72294;BME280;60632;49.236;8.398;2022-08-19T03:45:59;100120.53;;;28.18;49.62
72294;BME280;60632;49.236;8.398;2022-08-19T03:49:00;100107.78;;;28.17;49.46
72294;BME280;60632;49.236;8.398;2022-08-19T03:52:03;100117.28;;;28.15;49.30
72294;BME280;60632;49.236;8.398;2022-08-19T03:55:07;100117.28;;;28.15;49.47
72294;BME280;60632;49.236;8.398;2022-08-19T03:58:07;100122.84;;;28.15;49.48
72294;BME280;60632;49.236;8.398;2022-08-19T04:01:13;100121.25;;;28.14;49.67
72294;BME280;60632;49.236;8.398;2022-08-19T04:04:14;100131.59;;;28.14;49.33
72294;BME280;60632;49.236;8.398;2022-08-19T04:07:15;100128.00;;;28.13;49.48
72294;BME280;60632;49.236;8.398;2022-08-19T04:10:21;100124.38;;;28.13;49.51
72294;BME280;60632;49.236;8.398;2022-08-19T04:13:22;100118.00;;;28.12;49.49
72294;BME280;60632;49.236;8.398;2022-08-19T04:16:26;100112.81;;;28.11;49.35
72294;BME280;60632;49.236;8.398;2022-08-19T04:19:30;100113.59;;;28.11;49.74
72294;BME280;60632;49.236;8.398;2022-08-19T04:22:31;100116.72;;;28.10;49.50
72294;BME280;60632;49.236;8.398;2022-08-19T04:25:35;100121.16;;;28.11;49.54
72294;BME280;60632;49.236;8.398;2022-08-19T04:28:36;100118.72;;;28.09;49.44
72294;BME280;60632;49.236;8.398;2022-08-19T04:31:37;100118.72;;;28.09;49.74
72294;BME280;60632;49.236;8.398;2022-08-19T04:34:38;100125.09;;;28.10;49.53
72294;BME280;60632;49.236;8.398;2022-08-19T04:37:42;100118.72;;;28.09;49.56
72294;BME280;60632;49.236;8.398;2022-08-19T04:40:51;100114.31;;;28.08;49.46
72294;BME280;60632;49.236;8.398;2022-08-19T04:44:11;100121.06;;;28.07;49.57
72294;BME280;60632;49.236;8.398;2022-08-19T04:47:11;100121.06;;;28.07;49.77
72294;BME280;60632;49.236;8.398;2022-08-19T04:50:11;100128.63;;;28.07;49.46
72294;BME280;60632;49.236;8.398;2022-08-19T04:53:12;100130.56;;;28.06;49.68
72294;BME280;60632;49.236;8.398;2022-08-19T04:56:13;100136.16;;;28.06;49.46
72294;BME280;60632;49.236;8.398;2022-08-19T04:59:14;100134.53;;;28.05;49.42
72294;BME280;60632;49.236;8.398;2022-08-19T05:02:15;100132.56;;;28.06;49.35
72294;BME280;60632;49.236;8.398;2022-08-19T05:05:16;100128.97;;;28.05;49.76
72294;BME280;60632;49.236;8.398;2022-08-19T05:08:17;100132.91;;;28.04;49.43
72294;BME280;60632;49.236;8.398;2022-08-19T05:11:25;100150.44;;;28.05;49.57
72294;BME280;60632;49.236;8.398;2022-08-19T05:14:26;100155.22;;;28.04;49.61
72294;BME280;60632;49.236;8.398;2022-08-19T05:17:26;100148.84;;;28.04;49.48
72294;BME280;60632;49.236;8.398;2022-08-19T05:20:27;100149.97;;;28.03;49.45
72294;BME280;60632;49.236;8.398;2022-08-19T05:23:46;100145.59;;;28.02;49.45
72294;BME280;60632;49.236;8.398;2022-08-19T05:26:47;100144.78;;;28.01;49.71
72294;BME280;60632;49.236;8.398;2022-08-19T05:29:48;100147.56;;;28.01;49.80
72294;BME280;60632;49.236;8.398;2022-08-19T05:32:49;100164.28;;;28.01;49.44
72294;BME280;60632;49.236;8.398;2022-08-19T05:35:50;100161.50;;;28.01;49.74
72294;BME280;60632;49.236;8.398;2022-08-19T05:38:51;100172.63;;;28.01;49.49
72294;BME280;60632;49.236;8.398;2022-08-19T05:42:01;100177.41;;;28.01;49.61
72294;BME280;60632;49.236;8.398;2022-08-19T05:45:10;100189.34;;;28.01;49.55
72294;BME280;60632;49.236;8.398;2022-08-19T05:48:11;100200.50;;;28.01;49.84
72294;BME280;60632;49.236;8.398;2022-08-19T05:51:15;100194.91;;;28.01;49.62
72294;BME280;60632;49.236;8.398;2022-08-19T05:54:16;100206.06;;;28.01;49.45
72294;BME280;60632;49.236;8.398;2022-08-19T05:57:18;100204.41;;;28.00;49.60
72294;BME280;60632;49.236;8.398;2022-08-19T06:00:19;100210.00;;;28.00;49.54
72294;BME280;60632;49.236;8.398;2022-08-19T06:03:19;100215.56;;;28.00;49.51
72294;BME280;60632;49.236;8.398;2022-08-19T06:06:20;100217.53;;;28.00;49.65
72294;BME280;60632;49.236;8.398;2022-08-19T06:09:21;100226.72;;;28.00;49.47
72294;BME280;60632;49.236;8.398;2022-08-19T06:12:22;100231.47;;;28.00;49.54
72294;BME280;60632;49.236;8.398;2022-08-19T06:15:28;100232.28;;;28.00;49.61
72294;BME280;60632;49.236;8.398;2022-08-19T06:18:29;100223.13;;;28.00;49.44
72294;BME280;60632;49.236;8.398;2022-08-19T06:21:29;100224.28;;;27.99;49.55
72294;BME280;60632;49.236;8.398;2022-08-19T06:24:30;100224.28;;;27.99;49.68
72294;BME280;60632;49.236;8.398;2022-08-19T06:27:41;100226.28;;;27.98;49.79
72294;BME280;60632;49.236;8.398;2022-08-19T06:30:42;100234.63;;;27.98;49.47
72294;BME280;60632;49.236;8.398;2022-08-19T06:33:43;100225.81;;;27.96;49.77
72294;BME280;60632;49.236;8.398;2022-08-19T06:36:47;100223.47;;;27.98;49.70
72294;BME280;60632;49.236;8.398;2022-08-19T06:39:48;100214.66;;;27.96;49.56
72294;BME280;60632;49.236;8.398;2022-08-19T06:42:48;100220.22;;;27.96;49.57
72294;BME280;60632;49.236;8.398;2022-08-19T06:45:49;100231.38;;;27.96;49.55
72294;BME280;60632;49.236;8.398;2022-08-19T06:48:52;100238.13;;;27.95;49.73
72294;BME280;60632;49.236;8.398;2022-08-19T06:51:53;100236.94;;;27.96;49.88
72294;BME280;60632;49.236;8.398;2022-08-19T06:54:54;100239.28;;;27.94;49.84
72294;BME280;60632;49.236;8.398;2022-08-19T06:57:56;100238.47;;;27.94;49.82
72294;BME280;60632;49.236;8.398;2022-08-19T07:00:56;100239.28;;;27.94;49.61
72294;BME280;60632;49.236;8.398;2022-08-19T07:03:57;100236.50;;;27.94;49.54
72294;BME280;60632;49.236;8.398;2022-08-19T07:07:02;100234.53;;;27.95;49.67
72294;BME280;60632;49.236;8.398;2022-08-19T07:10:03;100237.66;;;27.93;49.81
72294;BME280;60632;49.236;8.398;2022-08-19T07:13:04;100249.59;;;27.94;49.64
72294;BME280;60632;49.236;8.398;2022-08-19T07:16:06;100236.03;;;27.92;49.75
72294;BME280;60632;49.236;8.398;2022-08-19T07:19:07;100243.22;;;27.93;49.81
72294;BME280;60632;49.236;8.398;2022-08-19T07:22:08;100247.19;;;27.92;49.76
72294;BME280;60632;49.236;8.398;2022-08-19T07:25:09;100243.59;;;27.91;49.83
72294;BME280;60632;49.236;8.398;2022-08-19T07:28:09;100241.59;;;27.92;49.80
72294;BME280;60632;49.236;8.398;2022-08-19T07:31:11;100238.81;;;27.92;49.59
72294;BME280;60632;49.236;8.398;2022-08-19T07:34:12;100234.44;;;27.91;49.53
72294;BME280;60632;49.236;8.398;2022-08-19T07:37:14;100240.00;;;27.91;49.60
72294;BME280;60632;49.236;8.398;2022-08-19T07:40:15;100240.81;;;27.91;49.90
72294;BME280;60632;49.236;8.398;2022-08-19T07:43:15;100238.34;;;27.90;49.60
72294;BME280;60632;49.236;8.398;2022-08-19T07:46:16;100230.47;;;27.92;49.68
72294;BME280;60632;49.236;8.398;2022-08-19T07:49:17;100234.44;;;27.91;49.45
72294;BME280;60632;49.236;8.398;2022-08-19T07:52:19;100238.34;;;27.90;49.57
72294;BME280;60632;49.236;8.398;2022-08-19T07:55:23;100242.78;;;27.91;49.52
72294;BME280;60632;49.236;8.398;2022-08-19T07:58:25;100237.56;;;27.89;49.70
72294;BME280;60632;49.236;8.398;2022-08-19T08:01:26;100242.78;;;27.91;49.68
72294;BME280;60632;49.236;8.398;2022-08-19T08:04:28;100237.56;;;27.89;49.80
72294;BME280;60632;49.236;8.398;2022-08-19T08:07:47;100242.31;;;27.89;49.77
72294;BME280;60632;49.236;8.398;2022-08-19T08:11:12;100237.91;;;27.88;49.70
72294;BME280;60632;49.236;8.398;2022-08-19T08:14:17;100235.56;;;27.90;49.76
72294;BME280;60632;49.236;8.398;2022-08-19T08:17:19;100243.13;;;27.89;49.89
72294;BME280;60632;49.236;8.398;2022-08-19T08:20:20;100242.31;;;27.89;49.62
72294;BME280;60632;49.236;8.398;2022-08-19T08:23:22;100247.88;;;27.89;49.91
72294;BME280;60632;49.236;8.398;2022-08-19T08:26:28;100236.75;;;27.89;49.77
72294;BME280;60632;49.236;8.398;2022-08-19T08:29:30;100247.88;;;27.89;49.84
72294;BME280;60632;49.236;8.398;2022-08-19T08:32:31;100245.09;;;27.89;49.54
72294;BME280;60632;49.236;8.398;2022-08-19T08:35:31;100240.72;;;27.88;49.92
72294;BME280;60632;49.236;8.398;2022-08-19T08:38:32;100247.88;;;27.89;49.88
72294;BME280;60632;49.236;8.398;2022-08-19T08:45:00;100252.66;;;27.88;49.73
72294;BME280;60632;49.236;8.398;2022-08-19T08:48:02;100251.84;;;27.88;49.88
72294;BME280;60632;49.236;8.398;2022-08-19T08:51:09;100259.03;;;27.89;49.61
72294;BME280;60632;49.236;8.398;2022-08-19T08:54:12;100253.47;;;27.89;49.80
72294;BME280;60632;49.236;8.398;2022-08-19T08:57:15;100251.84;;;27.88;49.53
72294;BME280;60632;49.236;8.398;2022-08-19T09:00:27;100260.19;;;27.88;49.82
72294;BME280;60632;49.236;8.398;2022-08-19T09:03:29;100260.19;;;27.88;49.86
72294;BME280;60632;49.236;8.398;2022-08-19T09:06:43;100247.41;;;27.87;49.76
72294;BME280;60632;49.236;8.398;2022-08-19T09:09:52;100253.78;;;27.87;49.69
72294;BME280;60632;49.236;8.398;2022-08-19T09:16:15;100243.50;;;27.88;49.53
72294;BME280;60632;49.236;8.398;2022-08-19T09:19:16;100246.28;;;27.88;49.68
72294;BME280;60632;49.236;8.398;2022-08-19T09:22:17;100252.66;;;27.88;49.85
72294;BME280;60632;49.236;8.398;2022-08-19T09:25:21;100248.69;;;27.89;49.76
72294;BME280;60632;49.236;8.398;2022-08-19T09:28:24;100250.66;;;27.89;49.56
72294;BME280;60632;49.236;8.398;2022-08-19T09:31:25;100243.13;;;27.89;49.51
72294;BME280;60632;49.236;8.398;2022-08-19T09:34:26;100242.31;;;27.89;49.81
72294;BME280;60632;49.236;8.398;2022-08-19T09:37:29;100238.34;;;27.90;49.49
72294;BME280;60632;49.236;8.398;2022-08-19T09:40:30;100243.94;;;27.90;49.53
72294;BME280;60632;49.236;8.398;2022-08-19T09:43:31;100255.88;;;27.90;49.76
72294;BME280;60632;49.236;8.398;2022-08-19T09:46:32;100248.34;;;27.91;49.80
72294;BME280;60632;49.236;8.398;2022-08-19T09:49:32;100251.94;;;27.91;49.49
72294;BME280;60632;49.236;8.398;2022-08-19T09:52:33;100246.38;;;27.91;49.54
72294;BME280;60632;49.236;8.398;2022-08-19T09:55:41;100247.19;;;27.92;49.56
72294;BME280;60632;49.236;8.398;2022-08-19T09:58:41;100248.78;;;27.93;49.60
72294;BME280;60632;49.236;8.398;2022-08-19T10:01:41;100250.44;;;27.94;49.64
72294;BME280;60632;49.236;8.398;2022-08-19T10:04:42;100237.66;;;27.93;49.56
72294;BME280;60632;49.236;8.398;2022-08-19T10:08:01;100241.59;;;27.92;49.80
72294;BME280;60632;49.236;8.398;2022-08-19T10:11:02;100250.44;;;27.94;49.54
72294;BME280;60632;49.236;8.398;2022-08-19T10:14:03;100248.78;;;27.93;49.80
72294;BME280;60632;49.236;8.398;2022-08-19T10:17:08;100258.78;;;27.94;49.51
72294;BME280;60632;49.236;8.398;2022-08-19T10:20:08;100258.78;;;27.94;49.44
72294;BME280;60632;49.236;8.398;2022-08-19T10:23:12;100259.59;;;27.95;49.51
72294;BME280;60632;49.236;8.398;2022-08-19T10:26:15;100258.78;;;27.94;49.47
72294;BME280;60632;49.236;8.398;2022-08-19T10:29:16;100236.75;;;27.89;49.56
72294;BME280;60632;49.236;8.398;2022-08-19T10:32:16;100246.47;;;27.95;49.46
72294;BME280;60632;49.236;8.398;2022-08-19T10:35:17;100248.09;;;27.96;49.76
72294;BME280;60632;49.236;8.398;2022-08-19T10:38:17;100259.22;;;27.96;49.58
72294;BME280;60632;49.236;8.398;2022-08-19T10:41:22;100248.09;;;27.96;49.69
72294;BME280;60632;49.236;8.398;2022-08-19T10:44:23;100244.16;;;27.97;49.52
72294;BME280;60632;49.236;8.398;2022-08-19T10:47:24;100244.16;;;27.97;49.67
72294;BME280;60632;49.236;8.398;2022-08-19T10:50:24;100244.16;;;27.97;49.59
72294;BME280;60632;49.236;8.398;2022-08-19T10:53:43;100234.97;;;27.97;49.68
72294;BME280;60632;49.236;8.398;2022-08-19T10:56:44;100221.88;;;27.97;49.53
72294;BME280;60632;49.236;8.398;2022-08-19T10:59:53;100222.69;;;27.98;49.68
72294;BME280;60632;49.236;8.398;2022-08-19T11:02:54;100221.88;;;27.97;49.74
72294;BME280;60632;49.236;8.398;2022-08-19T11:06:01;100214.31;;;27.98;49.69
72294;BME280;60632;49.236;8.398;2022-08-19T11:09:02;100212.34;;;27.98;49.36
72294;BME280;60632;49.236;8.398;2022-08-19T11:12:03;100192.84;;;27.98;49.68
72294;BME280;60632;49.236;8.398;2022-08-19T11:15:06;100207.56;;;27.99;49.59
72294;BME280;60632;49.236;8.398;2022-08-19T11:18:10;100190.06;;;27.98;49.71
72294;BME280;60632;49.236;8.398;2022-08-19T11:24:13;100171.00;;;28.00;49.50
72294;BME280;60632;49.236;8.398;2022-08-19T11:27:14;100169.38;;;27.99;49.40
72294;BME280;60632;49.236;8.398;2022-08-19T11:30:15;100182.13;;;28.00;49.61
72294;BME280;60632;49.236;8.398;2022-08-19T11:33:15;100182.13;;;28.00;49.44
72294;BME280;60632;49.236;8.398;2022-08-19T11:36:16;100170.19;;;28.00;49.37
72294;BME280;60632;49.236;8.398;2022-08-19T11:39:18;100177.41;;;28.01;49.71
72294;BME280;60632;49.236;8.398;2022-08-19T11:42:20;100183.78;;;28.01;49.27
72294;BME280;60632;49.236;8.398;2022-08-19T11:45:39;100161.50;;;28.01;49.51
72294;BME280;60632;49.236;8.398;2022-08-19T11:48:39;100172.63;;;28.01;49.64
72294;BME280;60632;49.236;8.398;2022-08-19T11:51:40;100179.81;;;28.02;49.58
72294;BME280;60632;49.236;8.398;2022-08-19T11:54:45;100171.47;;;28.02;49.35
72294;BME280;60632;49.236;8.398;2022-08-19T11:57:46;100171.47;;;28.02;49.52
72294;BME280;60632;49.236;8.398;2022-08-19T12:00:46;100173.06;;;28.03;49.74
72294;BME280;60632;49.236;8.398;2022-08-19T12:03:50;100170.28;;;28.03;49.33
72294;BME280;60632;49.236;8.398;2022-08-19T12:06:52;100173.53;;;28.05;49.40
72294;BME280;60632;49.236;8.398;2022-08-19T12:09:53;100183.06;;;28.04;49.49
72294;BME280;60632;49.236;8.398;2022-08-19T12:12:53;100167.97;;;28.05;49.49
72294;BME280;60632;49.236;8.398;2022-08-19T12:15:53;100162.38;;;28.05;49.51
72294;BME280;60632;49.236;8.398;2022-08-19T12:18:54;100175.16;;;28.06;49.49
72294;BME280;60632;49.236;8.398;2022-08-19T12:21:58;100175.16;;;28.06;49.40
72294;BME280;60632;49.236;8.398;2022-08-19T12:25:00;100169.56;;;28.06;49.34
72294;BME280;60632;49.236;8.398;2022-08-19T12:28:00;100176.78;;;28.07;49.28
72294;BME280;60632;49.236;8.398;2022-08-19T12:31:01;100176.78;;;28.07;49.37
72294;BME280;60632;49.236;8.398;2022-08-19T12:34:01;100172.81;;;28.08;49.18
72294;BME280;60632;49.236;8.398;2022-08-19T12:37:03;100181.19;;;28.08;49.26
72294;BME280;60632;49.236;8.398;2022-08-19T12:40:04;100182.00;;;28.09;49.26
72294;BME280;60632;49.236;8.398;2022-08-19T12:43:06;100178.41;;;28.08;49.42
72294;BME280;60632;49.236;8.398;2022-08-19T12:46:07;100193.13;;;28.09;49.40
72294;BME280;60632;49.236;8.398;2022-08-19T12:49:07;100190.34;;;28.09;49.44
72294;BME280;60632;49.236;8.398;2022-08-19T12:52:08;100187.22;;;28.10;49.35
72294;BME280;60632;49.236;8.398;2022-08-19T12:55:09;100195.19;;;28.12;49.38
72294;BME280;60632;49.236;8.398;2022-08-19T12:58:11;100188.81;;;28.11;49.56
72294;BME280;60632;49.236;8.398;2022-08-19T13:01:13;100190.44;;;28.12;49.41
72294;BME280;60632;49.236;8.398;2022-08-19T13:04:17;100198.78;;;28.12;49.36
72294;BME280;60632;49.236;8.398;2022-08-19T13:07:17;100192.06;;;28.13;49.53
72294;BME280;60632;49.236;8.398;2022-08-19T13:10:19;100177.31;;;28.13;49.21
72294;BME280;60632;49.236;8.398;2022-08-19T13:13:19;100185.31;;;28.14;49.49
72294;BME280;60632;49.236;8.398;2022-08-19T13:16:20;100176.16;;;28.14;49.45
72294;BME280;60632;49.236;8.398;2022-08-19T13:19:21;100184.97;;;28.16;49.29
72294;BME280;60632;49.236;8.398;2022-08-19T13:22:23;100175.44;;;28.17;49.18
72294;BME280;60632;49.236;8.398;2022-08-19T13:25:25;100163.50;;;28.17;49.36
72294;BME280;60632;49.236;8.398;2022-08-19T13:28:25;100159.53;;;28.18;49.32
72294;BME280;60632;49.236;8.398;2022-08-19T13:31:26;100168.34;;;28.20;49.45
72294;BME280;60632;49.236;8.398;2022-08-19T13:34:46;100157.19;;;28.20;49.14
72294;BME280;60632;49.236;8.398;2022-08-19T13:37:47;100165.19;;;28.21;49.30
72294;BME280;60632;49.236;8.398;2022-08-19T13:40:48;100166.00;;;28.22;49.12
72294;BME280;60632;49.236;8.398;2022-08-19T13:43:50;100160.09;;;28.23;49.37
72294;BME280;60632;49.236;8.398;2022-08-19T13:46:50;100155.31;;;28.24;49.13
72294;BME280;60632;49.236;8.398;2022-08-19T13:49:55;100143.00;;;28.25;49.24
72294;BME280;60632;49.236;8.398;2022-08-19T13:52:56;100147.84;;;28.28;49.13
72294;BME280;60632;49.236;8.398;2022-08-19T13:55:57;100151.81;;;28.27;49.08
72294;BME280;60632;49.236;8.398;2022-08-19T13:58:57;100155.03;;;28.29;49.24
72294;BME280;60632;49.236;8.398;2022-08-19T14:01:58;100159.47;;;28.30;49.11
72294;BME280;60632;49.236;8.398;2022-08-19T14:04:59;100151.09;;;28.30;49.22
72294;BME280;60632;49.236;8.398;2022-08-19T14:08:00;100140.41;;;28.32;49.23
72294;BME280;60632;49.236;8.398;2022-08-19T14:11:00;100154.31;;;28.32;49.20
72294;BME280;60632;49.236;8.398;2022-08-19T14:14:00;100145.63;;;28.33;49.20
72294;BME280;60632;49.236;8.398;2022-08-19T14:17:01;100140.06;;;28.33;49.17
72294;BME280;60632;49.236;8.398;2022-08-19T14:20:03;100140.84;;;28.34;49.14
72294;BME280;60632;49.236;8.398;2022-08-19T14:23:07;100142.47;;;28.35;48.96
72294;BME280;60632;49.236;8.398;2022-08-19T14:26:12;100144.09;;;28.36;49.07
72294;BME280;60632;49.236;8.398;2022-08-19T14:29:13;100134.56;;;28.37;49.20
72294;BME280;60632;49.236;8.398;2022-08-19T14:32:14;100140.13;;;28.37;49.19
72294;BME280;60632;49.236;8.398;2022-08-19T14:35:15;100129.41;;;28.39;49.05
72294;BME280;60632;49.236;8.398;2022-08-19T14:38:17;100136.66;;;28.40;49.16
72294;BME280;60632;49.236;8.398;2022-08-19T14:41:19;100138.28;;;28.41;48.96
72294;BME280;60632;49.236;8.398;2022-08-19T14:44:20;100135.50;;;28.41;49.03
72294;BME280;60632;49.236;8.398;2022-08-19T14:47:21;100137.09;;;28.42;49.15
72294;BME280;60632;49.236;8.398;2022-08-19T14:50:24;100137.94;;;28.43;49.08
72294;BME280;60632;49.236;8.398;2022-08-19T14:53:24;100136.75;;;28.44;49.22
72294;BME280;60632;49.236;8.398;2022-08-19T14:56:28;100134.75;;;28.44;49.14
72294;BME280;60632;49.236;8.398;2022-08-19T14:59:30;100133.59;;;28.45;49.07
72294;BME280;60632;49.236;8.398;2022-08-19T15:02:31;100130.81;;;28.45;49.23
72294;BME280;60632;49.236;8.398;2022-08-19T15:05:32;100137.22;;;28.46;49.06
72294;BME280;60632;49.236;8.398;2022-08-19T15:08:34;100138.00;;;28.46;49.12
72294;BME280;60632;49.236;8.398;2022-08-19T15:11:35;100137.63;;;28.48;49.25
72294;BME280;60632;49.236;8.398;2022-08-19T15:14:39;100141.22;;;28.48;49.00
72294;BME280;60632;49.236;8.398;2022-08-19T15:17:42;100141.22;;;28.48;49.10
72294;BME280;60632;49.236;8.398;2022-08-19T15:20:43;100147.63;;;28.49;49.13
72294;BME280;60632;49.236;8.398;2022-08-19T15:23:45;100149.25;;;28.50;49.13
72294;BME280;60632;49.236;8.398;2022-08-19T15:26:46;100155.63;;;28.50;49.13
72294;BME280;60632;49.236;8.398;2022-08-19T15:29:46;100146.09;;;28.51;49.14
72294;BME280;60632;49.236;8.398;2022-08-19T15:32:47;100157.25;;;28.51;48.95
72294;BME280;60632;49.236;8.398;2022-08-19T15:35:48;100150.50;;;28.52;48.99
72294;BME280;60632;49.236;8.398;2022-08-19T15:38:50;100149.34;;;28.53;49.06
72294;BME280;60632;49.236;8.398;2022-08-19T15:41:52;100148.16;;;28.54;49.12
72294;BME280;60632;49.236;8.398;2022-08-19T15:44:52;100151.75;;;28.55;49.13
72294;BME280;60632;49.236;8.398;2022-08-19T15:47:53;100147.00;;;28.55;49.16
72294;BME280;60632;49.236;8.398;2022-08-19T15:50:53;100140.25;;;28.56;49.17
72294;BME280;60632;49.236;8.398;2022-08-19T15:53:54;100135.47;;;28.57;49.17
72294;BME280;60632;49.236;8.398;2022-08-19T15:56:54;100138.28;;;28.57;49.08
72294;BME280;60632;49.236;8.398;2022-08-19T16:00:13;100143.47;;;28.58;48.92
72294;BME280;60632;49.236;8.398;2022-08-19T16:03:36;100135.47;;;28.57;49.20